createdAt,value
2018-07-22T00:03:23.163Z,23.51
2018-07-22T00:08:15.690Z,23.44
2018-07-22T00:13:08.267Z,23.34
2018-07-22T00:18:00.762Z,23.28
2018-07-22T00:22:53.337Z,23.21
2018-07-22T00:27:46.596Z,23.18
2018-07-22T00:32:40.273Z,23.14
2018-07-22T00:37:32.912Z,23.09
2018-07-22T00:42:25.485Z,23.02
2018-07-22T00:47:18.104Z,23.01
2018-07-22T00:52:10.646Z,23.01
2018-07-22T00:57:03.158Z,22.97
2018-07-22T01:01:55.747Z,22.89
2018-07-22T01:06:48.313Z,22.85
2018-07-22T01:11:40.863Z,22.79
2018-07-22T01:16:33.388Z,22.73
2018-07-22T01:21:25.957Z,22.70
2018-07-22T01:26:18.493Z,22.65
2018-07-22T01:31:11.152Z,22.61
2018-07-22T01:36:03.717Z,22.56
2018-07-22T01:40:56.347Z,22.52
2018-07-22T01:45:48.900Z,22.45
2018-07-22T01:50:41.436Z,22.38
2018-07-22T01:55:34.038Z,22.33
2018-07-22T02:00:26.630Z,22.24
2018-07-22T02:05:19.299Z,22.17
2018-07-22T02:10:11.882Z,22.08
2018-07-22T02:15:04.675Z,22.03
2018-07-22T02:19:57.244Z,21.96
2018-07-22T02:24:49.822Z,21.88
2018-07-22T02:29:42.337Z,21.81
2018-07-22T02:34:34.889Z,21.75
2018-07-22T02:39:27.452Z,21.68
2018-07-22T02:44:20.038Z,21.65
2018-07-22T02:49:12.566Z,21.61
2018-07-22T02:54:05.162Z,21.59
2018-07-22T02:58:57.767Z,21.52
2018-07-22T03:03:50.328Z,21.43
2018-07-22T03:08:42.872Z,21.36
2018-07-22T03:13:35.435Z,21.29
2018-07-22T03:18:27.962Z,21.24
2018-07-22T03:23:20.651Z,21.20
2018-07-22T03:28:13.224Z,21.16
2018-07-22T03:33:06.051Z,21.15
2018-07-22T03:37:58.604Z,21.16
2018-07-22T03:42:51.223Z,21.13
2018-07-22T03:47:43.766Z,21.14
2018-07-22T03:52:36.464Z,21.13
2018-07-22T03:57:29.153Z,21.14
2018-07-22T04:02:21.734Z,21.20
2018-07-22T04:07:14.377Z,21.25
2018-07-22T04:12:07.227Z,21.27
2018-07-22T04:16:59.839Z,21.23
2018-07-22T04:21:52.361Z,21.21
2018-07-22T04:26:44.898Z,21.24
2018-07-22T04:31:37.656Z,21.25
2018-07-22T04:36:30.274Z,21.26
2018-07-22T04:41:22.816Z,21.26
2018-07-22T04:46:15.422Z,21.26
2018-07-22T04:51:07.999Z,21.26
2018-07-22T04:56:00.613Z,21.31
2018-07-22T05:00:53.176Z,21.39
2018-07-22T05:05:45.735Z,21.49
2018-07-22T05:10:38.299Z,21.53
2018-07-22T05:15:30.865Z,21.55
2018-07-22T05:20:23.474Z,21.57
2018-07-22T05:25:16.070Z,21.62
2018-07-22T05:30:08.909Z,21.68
2018-07-22T05:35:01.562Z,21.75
2018-07-22T05:39:54.086Z,21.79
2018-07-22T05:44:46.678Z,21.81
2018-07-22T05:49:39.214Z,21.86
2018-07-22T05:54:32.040Z,21.92
2018-07-22T05:59:24.614Z,21.96
2018-07-22T06:04:17.183Z,22.00
2018-07-22T06:09:10.856Z,22.05
2018-07-22T06:14:03.646Z,22.12
2018-07-22T06:18:56.286Z,22.13
2018-07-22T06:23:48.815Z,22.15
2018-07-22T06:28:41.399Z,22.17
2018-07-22T06:33:34.018Z,22.21
2018-07-22T06:38:26.566Z,22.24
2018-07-22T06:43:19.119Z,22.29
2018-07-22T06:48:11.627Z,22.34
2018-07-22T06:53:04.335Z,22.39
2018-07-22T06:57:56.951Z,22.45
2018-07-22T07:02:49.519Z,22.53
2018-07-22T07:07:42.167Z,22.57
2018-07-22T07:12:34.931Z,22.62
2018-07-22T07:17:27.547Z,22.77
2018-07-22T07:22:20.085Z,23.03
2018-07-22T07:27:12.648Z,23.54
2018-07-22T07:32:05.919Z,24.16
2018-07-22T07:36:58.527Z,24.48
2018-07-22T07:41:51.061Z,24.96
2018-07-22T07:46:43.614Z,25.28
2018-07-22T07:51:36.242Z,25.31
2018-07-22T07:56:28.774Z,25.50
2018-07-22T08:01:21.415Z,25.66
2018-07-22T08:06:13.916Z,25.60
2018-07-22T08:11:06.566Z,25.57
2018-07-22T08:15:59.205Z,25.93
2018-07-22T08:20:51.795Z,26.42
2018-07-22T08:25:44.331Z,26.58
2018-07-22T08:30:37.132Z,26.89
2018-07-22T08:35:29.662Z,26.97
2018-07-22T08:40:22.249Z,26.73
2018-07-22T08:45:14.757Z,26.56
2018-07-22T08:50:07.350Z,26.51
2018-07-22T08:54:59.958Z,26.54
2018-07-22T08:59:52.602Z,26.55
2018-07-22T09:04:45.213Z,26.46
2018-07-22T09:09:37.806Z,26.37
2018-07-22T09:14:30.516Z,26.33
2018-07-22T09:19:23.070Z,26.27
2018-07-22T09:24:15.775Z,26.31
2018-07-22T09:29:08.510Z,26.41
2018-07-22T09:34:01.329Z,26.58
2018-07-22T09:38:54.782Z,26.65
2018-07-22T09:43:47.485Z,26.73
2018-07-22T09:48:40.319Z,26.75
2018-07-22T09:53:32.869Z,26.97
2018-07-22T09:58:25.440Z,27.06
2018-07-22T10:03:18.166Z,27.07
2018-07-22T10:08:10.872Z,27.08
2018-07-22T10:13:03.489Z,27.13
2018-07-22T10:17:56.053Z,27.08
2018-07-22T10:22:48.827Z,27.12
2018-07-22T10:27:41.370Z,27.23
2018-07-22T10:32:34.186Z,27.41
2018-07-22T10:37:26.930Z,27.46
2018-07-22T10:42:19.558Z,27.44
2018-07-22T10:47:12.291Z,27.43
2018-07-22T10:52:04.823Z,27.42
2018-07-22T10:56:57.538Z,27.46
2018-07-22T11:01:50.122Z,27.50
2018-07-22T11:06:42.713Z,27.51
2018-07-22T11:11:35.307Z,27.55
2018-07-22T11:16:27.893Z,27.53
2018-07-22T11:21:20.559Z,27.57
2018-07-22T11:26:13.279Z,27.65
2018-07-22T11:31:06.024Z,27.71
2018-07-22T11:35:58.642Z,27.76
2018-07-22T11:40:51.262Z,27.82
2018-07-22T11:45:43.909Z,27.84
2018-07-22T11:50:36.642Z,27.87
2018-07-22T11:55:29.338Z,27.90
2018-07-22T12:00:21.951Z,27.95
2018-07-22T12:05:14.579Z,28.01
2018-07-22T12:10:07.207Z,28.07
2018-07-22T12:14:59.845Z,28.06
2018-07-22T12:19:52.340Z,28.12
2018-07-22T12:24:44.894Z,28.16
2018-07-22T12:29:37.388Z,28.16
2018-07-22T12:34:30.061Z,28.18
2018-07-22T12:39:22.602Z,28.20
2018-07-22T12:44:15.202Z,28.20
2018-07-22T12:49:07.990Z,28.21
2018-07-22T12:54:00.784Z,28.21
2018-07-22T12:58:53.298Z,28.19
2018-07-22T13:03:45.994Z,28.22
2018-07-22T13:08:38.464Z,28.26
2018-07-22T13:13:31.133Z,28.28
2018-07-22T13:18:23.723Z,28.30
2018-07-22T13:23:16.325Z,28.29
2018-07-22T13:28:08.901Z,28.27
2018-07-22T13:33:01.578Z,28.29
2018-07-22T13:37:54.172Z,28.34
2018-07-22T13:42:46.787Z,28.43
2018-07-22T13:47:40.297Z,28.53
2018-07-22T13:52:33.343Z,28.64
2018-07-22T13:57:25.911Z,28.63
2018-07-22T14:02:18.536Z,28.69
2018-07-22T14:07:11.199Z,28.81
2018-07-22T14:12:03.829Z,28.87
2018-07-22T14:16:56.465Z,28.98
2018-07-22T14:21:49.033Z,29.07
2018-07-22T14:26:41.602Z,29.10
2018-07-22T14:31:34.435Z,29.12
2018-07-22T14:36:29.612Z,29.09
2018-07-22T14:41:23.404Z,29.03
2018-07-22T14:46:16.085Z,29.00
2018-07-22T14:51:08.803Z,29.00
2018-07-22T14:56:01.559Z,29.01
2018-07-22T15:00:54.141Z,29.02
2018-07-22T15:05:46.831Z,28.99
2018-07-22T15:10:39.378Z,28.95
2018-07-22T15:15:31.942Z,28.92
2018-07-22T15:20:24.589Z,28.93
2018-07-22T15:25:17.291Z,28.94
2018-07-22T15:30:10.403Z,28.91
2018-07-22T15:35:02.999Z,28.88
2018-07-22T15:39:55.701Z,28.85
2018-07-22T15:44:48.272Z,28.73
2018-07-22T15:49:40.877Z,28.60
2018-07-22T15:54:33.337Z,28.58
2018-07-22T15:59:25.862Z,28.58
2018-07-22T16:04:18.410Z,28.57
2018-07-22T16:09:11.564Z,28.56
2018-07-22T16:14:04.313Z,28.54
2018-07-22T16:18:56.887Z,28.51
2018-07-22T16:23:49.478Z,28.47
2018-07-22T16:28:41.984Z,28.45
2018-07-22T16:33:34.581Z,28.44
2018-07-22T16:38:27.117Z,28.40
2018-07-22T16:43:19.711Z,28.34
2018-07-22T16:48:12.315Z,28.29
2018-07-22T16:53:04.987Z,28.24
2018-07-22T16:57:57.588Z,28.21
2018-07-22T17:02:50.109Z,28.19
2018-07-22T17:07:42.694Z,28.18
2018-07-22T17:12:35.198Z,28.15
2018-07-22T17:17:27.886Z,28.15
2018-07-22T17:22:20.459Z,28.15
2018-07-22T17:27:13.055Z,28.12
2018-07-22T17:32:05.714Z,28.04
2018-07-22T17:36:58.311Z,27.93
2018-07-22T17:41:50.797Z,27.84
2018-07-22T17:46:43.308Z,27.77
2018-07-22T17:51:35.851Z,27.70
2018-07-22T17:56:28.422Z,27.68
2018-07-22T18:01:21.008Z,27.63
2018-07-22T18:06:13.626Z,27.60
2018-07-22T18:11:06.263Z,27.53
2018-07-22T18:15:58.802Z,27.51
2018-07-22T18:20:51.349Z,27.45
2018-07-22T18:25:44.496Z,27.47
2018-07-22T18:30:37.031Z,27.51
2018-07-22T18:35:29.557Z,27.55
2018-07-22T18:40:22.846Z,27.52
2018-07-22T18:45:15.435Z,27.48
2018-07-22T18:50:08.039Z,27.41
2018-07-22T18:55:00.768Z,27.35
2018-07-22T18:59:53.441Z,27.24
2018-07-22T19:04:46.002Z,27.14
2018-07-22T19:09:38.721Z,27.05
2018-07-22T19:14:31.331Z,26.99
2018-07-22T19:19:24.090Z,26.89
2018-07-22T19:24:16.624Z,26.81
2018-07-22T19:29:09.220Z,26.76
2018-07-22T19:34:01.876Z,26.68
2018-07-22T19:38:54.457Z,26.59
2018-07-22T19:43:47.036Z,26.51
2018-07-22T19:48:39.627Z,26.42
2018-07-22T19:53:32.179Z,26.32
2018-07-22T19:58:24.794Z,26.22
2018-07-22T20:03:17.367Z,26.13
2018-07-22T20:08:10.005Z,26.02
2018-07-22T20:13:02.559Z,25.91
2018-07-22T20:17:55.133Z,25.78
2018-07-22T20:22:47.642Z,25.69
2018-07-22T20:27:40.144Z,25.62
2018-07-22T20:32:32.793Z,25.52
2018-07-22T20:37:25.383Z,25.44
2018-07-22T20:42:17.993Z,25.36
2018-07-22T20:47:10.684Z,25.28
2018-07-22T20:52:03.290Z,25.22
2018-07-22T20:56:55.805Z,25.14
2018-07-22T21:01:48.338Z,25.05
2018-07-22T21:06:40.834Z,25.00
2018-07-22T21:11:48.436Z,24.91
2018-07-22T21:16:40.999Z,24.82
2018-07-22T21:21:33.538Z,24.72
2018-07-22T21:26:26.159Z,24.62
2018-07-22T21:31:18.693Z,24.55
2018-07-22T21:36:11.371Z,24.48
2018-07-22T21:41:03.867Z,24.44
2018-07-22T21:45:56.375Z,24.33
2018-07-22T21:50:48.979Z,24.28
2018-07-22T21:55:41.550Z,24.24
2018-07-22T22:00:40.018Z,24.20
2018-07-22T22:05:32.631Z,24.12
2018-07-22T22:10:25.566Z,24.00
2018-07-22T22:15:28.174Z,23.90
2018-07-22T22:20:20.846Z,23.82
2018-07-22T22:25:13.350Z,23.81
2018-07-22T22:30:06.138Z,23.78
2018-07-22T22:34:58.760Z,23.75
2018-07-22T22:39:51.277Z,23.72
2018-07-22T22:44:43.879Z,23.63
2018-07-22T22:49:36.455Z,23.60
2018-07-22T22:54:29.034Z,23.58
2018-07-22T22:59:22.612Z,23.52
2018-07-22T23:04:15.586Z,23.50
2018-07-22T23:09:09.986Z,23.47
2018-07-22T23:14:02.796Z,23.49
2018-07-22T23:18:55.357Z,23.51
2018-07-22T23:23:47.871Z,23.52
2018-07-22T23:28:40.472Z,23.50
2018-07-22T23:33:32.978Z,23.47
2018-07-22T23:38:25.521Z,23.42
2018-07-22T23:43:18.123Z,23.38
2018-07-22T23:48:10.662Z,23.37
2018-07-22T23:53:03.239Z,23.33
2018-07-22T23:57:55.801Z,23.30
